Terminal Aerodrome Forecast
Issued by NWS

Home | Current Version | Previous Version | Text Only | Print | Product List | Glossary On
Versions: 1 2 3 4 5 6 7 8 9 10 11 12 13 14 15 16 17 18
169
FTUS43 KPAH 271304 AAA
TAFCGI
TAF AMD
KCGI 271304Z 2713/2812 00000KT 5SM BR BCFG SCT002
     FM271400 25005KT P6SM SKC=

USA.gov is the U.S. government's official web portal to all federal, state and local government web resources and services.